Terminal Aerodrome Forecast
Issued by NWS

Home | Current Version | Previous Version | Graphics & Text | Print | Product List | Glossary On
Versions: 1 2 3 4 5 6 7 8 9 10 11 12 13 14 15
557
FTUS43 KTOP 292337
TAFMHK
TAF
KMHK 292337Z 3000/3024 30007KT P6SM BKN060
     FM301600 28012G19KT P6SM BKN050=

USA.gov is the U.S. government's official web portal to all federal, state and local government web resources and services.